createdAt,value
2023-03-27T00:02:08.576Z,96.40
2023-03-27T00:04:35.394Z,96.50
2023-03-27T00:07:03.376Z,96.60
2023-03-27T00:09:32.272Z,96.70
2023-03-27T00:12:00.685Z,96.90
2023-03-27T00:14:27.602Z,97.10
2023-03-27T00:16:54.192Z,97.10
2023-03-27T00:19:21.702Z,97.30
2023-03-27T00:21:48.693Z,97.40
2023-03-27T00:24:15.891Z,97.50
2023-03-27T00:26:43.117Z,97.50
2023-03-27T00:29:10.456Z,97.50
2023-03-27T00:31:37.043Z,97.70
2023-03-27T00:34:03.641Z,97.90
2023-03-27T00:36:30.321Z,97.90
2023-03-27T00:38:57.026Z,98.00
2023-03-27T00:41:23.733Z,98.10
2023-03-27T00:43:52.639Z,98.00
2023-03-27T00:46:21.235Z,98.10
2023-03-27T00:48:49.651Z,98.10
2023-03-27T00:51:16.725Z,98.40
2023-03-27T00:53:43.919Z,98.40
2023-03-27T00:56:10.735Z,98.50
2023-03-27T00:58:41.231Z,98.60
2023-03-27T01:01:09.916Z,98.60
2023-03-27T01:03:36.960Z,98.60
2023-03-27T01:06:04.071Z,98.80
2023-03-27T01:08:33.655Z,98.80
2023-03-27T01:11:10.994Z,99.00
2023-03-27T01:13:46.447Z,99.10
2023-03-27T01:16:35.351Z,99.20
2023-03-27T01:19:01.912Z,99.30
2023-03-27T01:21:34.562Z,99.40
2023-03-27T01:24:20.236Z,99.50
2023-03-27T01:26:59.126Z,99.70
2023-03-27T01:29:28.992Z,99.80
2023-03-27T01:32:01.507Z,99.80
2023-03-27T01:34:28.049Z,99.80
2023-03-27T01:37:07.112Z,99.70
2023-03-27T01:40:05.131Z,99.70
2023-03-27T01:42:35.510Z,99.70
2023-03-27T01:45:17.065Z,99.60
2023-03-27T01:47:58.351Z,99.60
2023-03-27T01:50:39.149Z,99.50
2023-03-27T01:53:09.020Z,99.70
2023-03-27T01:55:39.532Z,99.70
2023-03-27T01:58:18.048Z,99.80
2023-03-27T02:00:52.070Z,99.80
2023-03-27T02:03:41.657Z,99.90
2023-03-27T02:06:08.636Z,99.90
2023-03-27T02:08:50.541Z,99.90
2023-03-27T02:11:17.580Z,99.90
2023-03-27T02:13:44.146Z,99.90
2023-03-27T02:16:13.584Z,99.90
2023-03-27T02:18:47.567Z,99.90
2023-03-27T02:21:14.638Z,99.90
2023-03-27T02:23:41.818Z,99.90
2023-03-27T02:26:11.028Z,99.90
2023-03-27T02:28:46.671Z,99.90
2023-03-27T02:31:32.130Z,99.90
2023-03-27T02:34:13.212Z,99.90
2023-03-27T02:37:06.302Z,99.90
2023-03-27T02:39:42.248Z,99.90
2023-03-27T02:42:14.705Z,99.80
2023-03-27T02:44:47.527Z,99.80
2023-03-27T02:47:19.978Z,99.90
2023-03-27T02:49:51.196Z,99.90
2023-03-27T02:52:26.032Z,99.80
2023-03-27T02:54:56.039Z,99.90
2023-03-27T02:57:26.474Z,99.90
2023-03-27T02:59:56.006Z,99.70
2023-03-27T03:02:24.764Z,99.70
2023-03-27T03:04:57.138Z,99.90
2023-03-27T03:07:26.898Z,99.60
2023-03-27T03:09:54.131Z,99.60
2023-03-27T03:12:21.434Z,99.70
2023-03-27T03:14:48.133Z,99.70
2023-03-27T03:17:15.251Z,99.90
2023-03-27T03:19:41.850Z,99.90
2023-03-27T03:22:08.449Z,99.90
2023-03-27T03:24:41.809Z,99.90
2023-03-27T03:27:08.647Z,99.90
2023-03-27T03:29:37.993Z,99.90
2023-03-27T03:32:06.277Z,99.90
2023-03-27T03:34:35.589Z,99.90
2023-03-27T03:37:02.289Z,99.90
2023-03-27T03:39:29.083Z,99.90
2023-03-27T03:41:55.959Z,99.90
2023-03-27T03:44:22.593Z,99.90
2023-03-27T03:46:49.228Z,99.90
2023-03-27T03:49:15.966Z,99.90
2023-03-27T03:51:42.623Z,99.90
2023-03-27T03:54:09.371Z,99.90
2023-03-27T03:56:37.300Z,99.90
2023-03-27T03:59:03.993Z,99.90
2023-03-27T04:01:30.583Z,99.90
2023-03-27T04:03:57.341Z,99.90
2023-03-27T04:06:25.521Z,99.90
2023-03-27T04:08:53.076Z,99.90
2023-03-27T04:11:19.810Z,99.90
2023-03-27T04:13:46.436Z,99.90
2023-03-27T04:16:13.203Z,99.90
2023-03-27T04:18:41.213Z,99.90
2023-03-27T04:21:14.224Z,99.90
2023-03-27T04:23:42.018Z,99.90
2023-03-27T04:26:08.613Z,99.90
2023-03-27T04:28:35.261Z,99.90
2023-03-27T04:31:06.209Z,99.90
2023-03-27T04:33:34.191Z,99.90
2023-03-27T04:36:06.598Z,99.90
2023-03-27T04:38:36.590Z,99.90
2023-03-27T04:41:03.740Z,99.90
2023-03-27T04:43:30.699Z,99.90
2023-03-27T04:45:57.385Z,99.90
2023-03-27T04:48:24.036Z,99.90
2023-03-27T04:50:50.696Z,99.90
2023-03-27T04:53:18.181Z,99.90
2023-03-27T04:55:45.824Z,99.90
2023-03-27T04:58:13.050Z,99.90
2023-03-27T05:00:40.138Z,99.90
2023-03-27T05:03:06.893Z,99.90
2023-03-27T05:05:34.677Z,99.90
2023-03-27T05:08:01.573Z,99.90
2023-03-27T05:10:28.155Z,99.90
2023-03-27T05:12:57.088Z,99.90
2023-03-27T05:15:24.633Z,99.90
2023-03-27T05:17:54.826Z,99.90
2023-03-27T05:20:22.210Z,99.90
2023-03-27T05:22:49.138Z,99.90
2023-03-27T05:25:15.955Z,99.90
2023-03-27T05:27:46.634Z,99.90
2023-03-27T05:30:16.602Z,99.90
2023-03-27T05:32:48.672Z,99.90
2023-03-27T05:35:20.126Z,99.90
2023-03-27T05:37:49.841Z,99.90
2023-03-27T05:40:17.515Z,99.90
2023-03-27T05:42:45.272Z,99.90
2023-03-27T05:45:12.874Z,99.90
2023-03-27T05:47:43.905Z,99.90
2023-03-27T05:50:10.661Z,99.90
2023-03-27T05:52:37.543Z,99.90
2023-03-27T05:55:05.042Z,99.90
2023-03-27T05:57:31.706Z,99.90
2023-03-27T05:59:58.296Z,99.90
2023-03-27T06:02:25.313Z,99.90
2023-03-27T06:04:52.186Z,99.90
2023-03-27T06:07:18.875Z,99.90
2023-03-27T06:09:45.612Z,99.90
2023-03-27T06:12:12.226Z,99.90
2023-03-27T06:14:38.799Z,99.90
2023-03-27T06:17:06.402Z,99.90
2023-03-27T06:19:32.962Z,99.90
2023-03-27T06:21:59.526Z,99.90
2023-03-27T06:24:26.303Z,99.90
2023-03-27T06:26:52.958Z,99.90
2023-03-27T06:29:19.572Z,99.90
2023-03-27T06:31:46.163Z,99.60
2023-03-27T06:34:14.953Z,98.90
2023-03-27T06:36:41.587Z,99.40
2023-03-27T06:39:08.329Z,99.30
2023-03-27T06:41:35.688Z,98.90
2023-03-27T06:44:02.306Z,98.90
2023-03-27T06:46:42.732Z,99.00
2023-03-27T06:49:11.927Z,98.70
2023-03-27T06:51:38.557Z,98.70
2023-03-27T06:54:05.218Z,98.60
2023-03-27T06:56:31.870Z,98.60
2023-03-27T06:58:58.487Z,98.50
2023-03-27T07:01:25.147Z,98.80
2023-03-27T07:03:51.752Z,98.80
2023-03-27T07:06:19.361Z,98.90
2023-03-27T07:08:47.715Z,98.30
2023-03-27T07:11:15.692Z,98.50
2023-03-27T07:13:42.564Z,98.80
2023-03-27T07:16:12.005Z,98.60
2023-03-27T07:18:38.890Z,98.10
2023-03-27T07:21:07.674Z,98.00
2023-03-27T07:23:34.297Z,98.30
2023-03-27T07:26:01.777Z,97.10
2023-03-27T07:28:28.373Z,97.10
2023-03-27T07:30:55.313Z,97.10
2023-03-27T07:33:22.303Z,97.00
2023-03-27T07:35:49.158Z,96.90
2023-03-27T07:38:16.585Z,97.20
2023-03-27T07:40:44.131Z,96.90
2023-03-27T07:43:10.999Z,96.70
2023-03-27T07:45:37.669Z,96.50
2023-03-27T07:48:22.902Z,96.70
2023-03-27T07:50:49.476Z,95.70
2023-03-27T07:53:33.631Z,95.70
2023-03-27T07:56:01.414Z,95.30
2023-03-27T07:58:28.276Z,94.30
2023-03-27T08:00:58.261Z,94.70
2023-03-27T08:03:26.198Z,94.30
2023-03-27T08:05:54.174Z,93.20
2023-03-27T08:08:20.941Z,93.30
2023-03-27T08:10:47.784Z,93.50
2023-03-27T08:13:14.458Z,92.70
2023-03-27T08:15:41.268Z,91.90
2023-03-27T08:18:08.981Z,91.50
2023-03-27T08:20:35.640Z,91.30
2023-03-27T08:23:02.697Z,91.20
2023-03-27T08:25:32.911Z,90.50
2023-03-27T08:28:00.064Z,89.30
2023-03-27T08:30:26.734Z,88.80
2023-03-27T08:32:53.477Z,89.70
2023-03-27T08:35:20.301Z,88.20
2023-03-27T08:37:47.139Z,87.00
2023-03-27T08:40:18.773Z,86.40
2023-03-27T08:42:46.370Z,86.10
2023-03-27T08:45:22.413Z,85.20
2023-03-27T08:48:07.312Z,85.60
2023-03-27T08:50:33.987Z,86.40
2023-03-27T08:53:01.470Z,87.50
2023-03-27T08:55:37.256Z,85.20
2023-03-27T08:58:04.001Z,82.20
2023-03-27T09:00:35.356Z,80.40
2023-03-27T09:03:10.686Z,75.80
2023-03-27T09:05:40.545Z,77.00
2023-03-27T09:08:21.161Z,77.10
2023-03-27T09:10:51.845Z,76.80
2023-03-27T09:13:18.483Z,77.80
2023-03-27T09:16:06.047Z,76.70
2023-03-27T09:18:40.488Z,77.40
2023-03-27T09:21:27.338Z,77.20
2023-03-27T09:23:55.264Z,77.60
2023-03-27T09:26:34.160Z,77.20
2023-03-27T09:29:02.026Z,78.60
2023-03-27T09:31:29.307Z,77.20
2023-03-27T09:33:57.857Z,76.10
2023-03-27T09:36:27.342Z,72.60
2023-03-27T09:38:58.557Z,73.90
2023-03-27T09:41:28.711Z,76.30
2023-03-27T09:44:03.567Z,73.80
2023-03-27T09:46:31.605Z,74.00
2023-03-27T09:49:00.442Z,73.40
2023-03-27T09:51:39.455Z,72.10
2023-03-27T09:54:07.205Z,73.30
2023-03-27T09:56:41.475Z,69.00
2023-03-27T09:59:13.275Z,64.40
2023-03-27T10:01:46.790Z,59.20
2023-03-27T10:04:16.201Z,62.00
2023-03-27T10:06:51.354Z,63.30
2023-03-27T10:09:26.448Z,65.40
2023-03-27T10:12:05.430Z,62.50
2023-03-27T10:14:34.643Z,58.90
2023-03-27T10:17:02.220Z,55.20
2023-03-27T10:19:39.891Z,52.80
2023-03-27T10:22:14.238Z,52.60
2023-03-27T10:24:44.397Z,54.40
2023-03-27T10:27:17.079Z,52.10
2023-03-27T10:29:43.766Z,50.20
2023-03-27T10:32:11.185Z,47.30
2023-03-27T10:34:37.935Z,45.60
2023-03-27T10:37:26.533Z,44.50
2023-03-27T10:39:54.991Z,43.80
2023-03-27T10:42:22.805Z,48.70
2023-03-27T10:44:49.608Z,51.80
2023-03-27T10:47:20.563Z,55.00
2023-03-27T10:49:52.062Z,52.30
2023-03-27T10:52:23.728Z,49.30
2023-03-27T10:55:17.609Z,45.30
2023-03-27T10:57:45.862Z,42.20
2023-03-27T11:00:19.941Z,40.40
2023-03-27T11:02:49.875Z,38.10
2023-03-27T11:05:18.995Z,36.30
2023-03-27T11:08:12.342Z,35.60
2023-03-27T11:10:42.056Z,34.90
2023-03-27T11:13:11.161Z,35.70
2023-03-27T11:15:43.657Z,36.10
2023-03-27T11:18:17.286Z,36.90
2023-03-27T11:20:46.795Z,38.40
2023-03-27T11:23:16.673Z,39.50
2023-03-27T11:25:46.825Z,38.90
2023-03-27T11:28:17.404Z,40.60
2023-03-27T11:30:44.437Z,39.30
2023-03-27T11:33:33.023Z,41.40
2023-03-27T11:36:11.768Z,42.70
2023-03-27T11:38:41.124Z,44.00
2023-03-27T11:41:12.295Z,46.70
2023-03-27T11:43:40.750Z,42.90
2023-03-27T11:46:07.949Z,39.20
2023-03-27T11:48:53.522Z,39.60
2023-03-27T11:51:38.542Z,41.40
2023-03-27T11:54:05.389Z,43.70
2023-03-27T11:56:38.711Z,46.40
2023-03-27T11:59:11.003Z,55.40
2023-03-27T12:01:37.591Z,56.70
2023-03-27T12:04:27.637Z,55.60
2023-03-27T12:07:09.792Z,55.00
2023-03-27T12:09:41.616Z,58.70
2023-03-27T12:12:26.577Z,50.50
2023-03-27T12:14:53.401Z,52.90
2023-03-27T12:17:52.643Z,51.40
2023-03-27T12:20:28.691Z,53.80
2023-03-27T12:22:58.371Z,53.80
2023-03-27T12:25:27.821Z,46.40
2023-03-27T12:28:23.094Z,51.10
2023-03-27T12:30:50.201Z,47.90
2023-03-27T12:33:28.742Z,51.60
2023-03-27T12:35:57.580Z,52.00
2023-03-27T12:38:24.220Z,48.10
2023-03-27T12:41:01.211Z,48.90
2023-03-27T12:43:29.464Z,47.90
2023-03-27T12:46:19.465Z,52.20
2023-03-27T12:49:06.493Z,54.70
2023-03-27T12:51:47.494Z,52.80
2023-03-27T12:54:22.062Z,56.40
2023-03-27T12:57:08.089Z,56.60
2023-03-27T12:59:34.808Z,60.40
2023-03-27T13:02:04.712Z,57.70
2023-03-27T13:04:31.405Z,61.00
2023-03-27T13:06:58.036Z,62.10
2023-03-27T13:09:27.482Z,60.40
2023-03-27T13:11:54.104Z,59.50
2023-03-27T13:14:29.958Z,57.50
2023-03-27T13:17:09.538Z,57.60
2023-03-27T13:19:42.156Z,60.60
2023-03-27T13:22:11.946Z,63.90
2023-03-27T13:24:54.332Z,61.50
2023-03-27T13:27:27.121Z,64.10
2023-03-27T13:29:54.063Z,65.20
2023-03-27T13:32:30.966Z,62.40
2023-03-27T13:35:21.099Z,60.40
2023-03-27T13:37:50.948Z,58.40
2023-03-27T13:40:24.304Z,57.70
2023-03-27T13:42:52.428Z,59.40
2023-03-27T13:45:19.019Z,59.10
2023-03-27T13:47:45.725Z,62.70
2023-03-27T13:50:23.485Z,65.20
2023-03-27T13:53:16.433Z,67.10
2023-03-27T13:55:49.212Z,68.90
2023-03-27T13:58:34.696Z,67.90
2023-03-27T14:01:25.197Z,68.80
2023-03-27T14:04:10.939Z,70.90
2023-03-27T14:06:56.568Z,67.40
2023-03-27T14:09:31.985Z,66.00
2023-03-27T14:12:01.469Z,64.60
2023-03-27T14:14:37.397Z,61.60
2023-03-27T14:17:15.083Z,60.30
2023-03-27T14:20:00.840Z,61.20
2023-03-27T14:22:50.716Z,60.40
2023-03-27T14:25:26.163Z,62.90
2023-03-27T14:27:54.129Z,67.30
2023-03-27T14:30:22.295Z,64.90
2023-03-27T14:32:49.890Z,63.10
2023-03-27T14:35:35.965Z,60.50
2023-03-27T14:38:23.356Z,61.00
2023-03-27T14:40:52.399Z,60.70
2023-03-27T14:43:21.057Z,61.00
2023-03-27T14:45:49.657Z,60.00
2023-03-27T14:48:31.461Z,59.80
2023-03-27T14:51:01.907Z,61.60
2023-03-27T14:53:31.301Z,60.60
2023-03-27T14:56:00.125Z,63.60
2023-03-27T14:58:27.396Z,61.20
2023-03-27T15:00:57.836Z,61.10
2023-03-27T15:03:26.137Z,63.00
2023-03-27T15:05:59.013Z,61.30
2023-03-27T15:08:25.918Z,61.00
2023-03-27T15:10:53.760Z,62.10
2023-03-27T15:13:23.359Z,61.60
2023-03-27T15:15:50.445Z,64.00
2023-03-27T15:18:24.575Z,64.20
2023-03-27T15:20:52.511Z,65.30
2023-03-27T15:23:45.415Z,63.90
2023-03-27T15:26:24.297Z,65.50
2023-03-27T15:29:01.167Z,64.00
2023-03-27T15:31:29.574Z,65.10
2023-03-27T15:34:06.149Z,63.60
2023-03-27T15:36:34.279Z,65.50
2023-03-27T15:39:01.423Z,63.90
2023-03-27T15:41:28.019Z,64.30
2023-03-27T15:44:16.776Z,63.30
2023-03-27T15:46:48.660Z,63.30
2023-03-27T15:49:19.474Z,63.50
2023-03-27T15:51:46.289Z,63.20
2023-03-27T15:54:30.266Z,64.50
2023-03-27T15:57:09.354Z,64.90
2023-03-27T15:59:52.254Z,65.30
2023-03-27T16:02:20.877Z,66.00
2023-03-27T16:04:48.301Z,65.80
2023-03-27T16:07:20.934Z,66.10
2023-03-27T16:09:54.025Z,66.50
2023-03-27T16:12:24.253Z,68.90
2023-03-27T16:14:53.489Z,70.40
2023-03-27T16:17:34.398Z,71.60
2023-03-27T16:20:01.496Z,72.10
2023-03-27T16:22:30.491Z,73.50
2023-03-27T16:24:57.663Z,73.20
2023-03-27T16:27:30.501Z,72.30
2023-03-27T16:29:57.173Z,72.50
2023-03-27T16:32:24.094Z,72.10
2023-03-27T16:34:53.512Z,72.20
2023-03-27T16:37:22.708Z,72.90
2023-03-27T16:39:49.901Z,72.50
2023-03-27T16:42:21.728Z,74.00
2023-03-27T16:44:50.307Z,73.50
2023-03-27T16:47:17.672Z,73.40
2023-03-27T16:49:44.333Z,73.10
2023-03-27T16:52:10.989Z,73.30
2023-03-27T16:54:37.654Z,73.10
2023-03-27T16:57:04.291Z,74.00
2023-03-27T16:59:30.936Z,74.10
2023-03-27T17:01:57.580Z,73.60
2023-03-27T17:04:25.306Z,73.70
2023-03-27T17:06:52.099Z,74.00
2023-03-27T17:09:18.741Z,74.10
2023-03-27T17:11:45.551Z,74.40
2023-03-27T17:14:12.287Z,75.00
2023-03-27T17:16:39.740Z,74.70
2023-03-27T17:19:06.715Z,75.40
2023-03-27T17:21:33.431Z,75.70
2023-03-27T17:24:01.017Z,76.30
2023-03-27T17:26:29.033Z,76.80
2023-03-27T17:28:55.980Z,77.50
2023-03-27T17:31:22.638Z,77.40
2023-03-27T17:33:49.270Z,77.30
2023-03-27T17:36:21.647Z,78.40
2023-03-27T17:38:53.489Z,78.00
2023-03-27T17:41:20.624Z,78.60
2023-03-27T17:43:47.437Z,79.80
2023-03-27T17:46:14.389Z,79.80
2023-03-27T17:48:41.898Z,80.40
2023-03-27T17:51:10.057Z,80.90
2023-03-27T17:53:37.854Z,80.90
2023-03-27T17:56:04.611Z,81.50
2023-03-27T17:58:31.335Z,82.00
2023-03-27T18:00:57.935Z,82.60
2023-03-27T18:03:24.639Z,83.00
2023-03-27T18:05:52.109Z,83.60
2023-03-27T18:08:19.919Z,84.40
2023-03-27T18:10:48.618Z,84.70
2023-03-27T18:13:16.048Z,84.80
2023-03-27T18:15:42.742Z,85.20
2023-03-27T18:18:09.450Z,86.10
2023-03-27T18:20:36.244Z,86.40
2023-03-27T18:23:02.927Z,86.90
2023-03-27T18:25:30.316Z,87.20
2023-03-27T18:27:56.925Z,86.90
2023-03-27T18:30:23.843Z,86.80
2023-03-27T18:32:50.737Z,86.20
2023-03-27T18:35:18.716Z,87.40
2023-03-27T18:37:46.372Z,87.90
2023-03-27T18:40:15.098Z,90.00
2023-03-27T18:42:44.942Z,90.90
2023-03-27T18:45:12.642Z,91.60
2023-03-27T18:47:39.426Z,92.50
2023-03-27T18:50:06.662Z,93.30
2023-03-27T18:52:33.282Z,93.80
2023-03-27T18:54:59.883Z,94.20
2023-03-27T18:57:26.520Z,94.70
2023-03-27T18:59:55.004Z,94.80
2023-03-27T19:02:22.092Z,95.20
2023-03-27T19:04:48.850Z,95.10
2023-03-27T19:07:16.544Z,95.20
2023-03-27T19:09:43.223Z,95.60
2023-03-27T19:12:10.552Z,96.20
2023-03-27T19:14:37.200Z,96.20
2023-03-27T19:17:04.519Z,96.60
2023-03-27T19:19:31.863Z,97.00
2023-03-27T19:21:58.689Z,97.40
2023-03-27T19:24:25.583Z,97.60
2023-03-27T19:26:52.812Z,97.80
2023-03-27T19:29:20.172Z,97.60
2023-03-27T19:31:46.798Z,97.80
2023-03-27T19:34:13.574Z,97.90
2023-03-27T19:36:40.420Z,98.20
2023-03-27T19:39:07.141Z,98.30
2023-03-27T19:41:33.842Z,98.90
2023-03-27T19:44:00.750Z,99.50
2023-03-27T19:46:28.440Z,99.90
2023-03-27T19:48:55.797Z,99.90
2023-03-27T19:51:22.843Z,99.90
2023-03-27T19:53:49.490Z,99.90
2023-03-27T19:56:16.218Z,99.90
2023-03-27T19:58:42.803Z,99.90
2023-03-27T20:01:09.691Z,99.90
2023-03-27T20:03:38.385Z,99.90
2023-03-27T20:06:11.927Z,99.90
2023-03-27T20:08:40.963Z,99.90
2023-03-27T20:11:07.773Z,99.90
2023-03-27T20:13:42.485Z,99.90
2023-03-27T20:16:16.368Z,99.90
2023-03-27T20:18:43.488Z,99.90
2023-03-27T20:21:13.443Z,99.90
2023-03-27T20:23:41.934Z,99.90
2023-03-27T20:26:09.248Z,99.90
2023-03-27T20:28:36.100Z,99.90
2023-03-27T20:31:04.226Z,99.90
2023-03-27T20:33:31.050Z,99.90
2023-03-27T20:35:57.914Z,99.90
2023-03-27T20:38:28.697Z,99.90
2023-03-27T20:40:56.320Z,99.90
2023-03-27T20:43:23.071Z,99.90
2023-03-27T20:45:54.786Z,99.90
2023-03-27T20:48:21.943Z,99.90
2023-03-27T20:50:51.253Z,99.90
2023-03-27T20:53:19.003Z,99.90
2023-03-27T20:58:13.299Z,99.90
2023-03-27T21:00:40.711Z,99.90
2023-03-27T21:03:07.428Z,99.90
2023-03-27T21:05:34.620Z,99.90
2023-03-27T21:08:01.326Z,99.90
2023-03-27T21:10:27.905Z,99.90
2023-03-27T21:12:56.530Z,99.90
2023-03-27T21:15:23.315Z,99.90
2023-03-27T21:17:50.005Z,99.90
2023-03-27T21:20:16.802Z,99.90
2023-03-27T21:22:43.495Z,99.90
2023-03-27T21:25:10.087Z,99.90
2023-03-27T21:27:36.740Z,99.90
2023-03-27T21:30:04.017Z,99.90
2023-03-27T21:32:30.683Z,99.90
2023-03-27T21:34:57.281Z,99.90
2023-03-27T21:37:23.904Z,99.90
2023-03-27T21:39:50.684Z,99.90
2023-03-27T21:42:21.202Z,99.90
2023-03-27T21:44:52.515Z,99.90
2023-03-27T21:47:21.884Z,99.90
2023-03-27T21:49:48.514Z,99.90
2023-03-27T21:52:15.204Z,99.90
2023-03-27T21:54:47.420Z,99.90
2023-03-27T21:57:25.054Z,99.90
2023-03-27T21:59:52.767Z,99.90
2023-03-27T22:02:19.432Z,99.90
2023-03-27T22:04:46.258Z,99.90
2023-03-27T22:07:13.065Z,99.90
2023-03-27T22:09:39.677Z,99.90
2023-03-27T22:12:06.452Z,99.90
2023-03-27T22:14:33.116Z,99.90
2023-03-27T22:16:59.785Z,99.90
2023-03-27T22:19:26.390Z,99.90
2023-03-27T22:21:53.025Z,99.90
2023-03-27T22:24:19.754Z,99.90
2023-03-27T22:26:46.320Z,99.90
2023-03-27T22:29:12.944Z,99.90
2023-03-27T22:31:39.632Z,99.90
2023-03-27T22:34:06.305Z,99.90
2023-03-27T22:36:33.436Z,99.90
2023-03-27T22:39:00.521Z,99.90
2023-03-27T22:41:27.246Z,99.90
2023-03-27T22:43:54.149Z,99.90
2023-03-27T22:46:21.719Z,99.90
2023-03-27T22:48:52.894Z,99.90
2023-03-27T22:51:19.465Z,99.90
2023-03-27T22:53:46.407Z,99.90
2023-03-27T22:56:13.390Z,99.90
2023-03-27T22:58:39.987Z,99.90
2023-03-27T23:01:06.861Z,99.90
2023-03-27T23:03:33.542Z,99.90
2023-03-27T23:06:00.375Z,99.90
2023-03-27T23:08:27.370Z,99.90
2023-03-27T23:10:55.255Z,99.90
2023-03-27T23:13:22.126Z,99.90
2023-03-27T23:15:49.659Z,99.90
2023-03-27T23:18:16.313Z,99.90
2023-03-27T23:20:42.948Z,99.90
2023-03-27T23:23:09.536Z,99.90
2023-03-27T23:25:36.177Z,99.90
2023-03-27T23:28:02.777Z,99.90
2023-03-27T23:30:29.413Z,99.90
2023-03-27T23:32:56.088Z,99.90
2023-03-27T23:35:22.710Z,99.90
2023-03-27T23:37:49.282Z,99.90
2023-03-27T23:40:16.148Z,99.90
2023-03-27T23:42:42.787Z,99.90
2023-03-27T23:45:09.633Z,99.90
2023-03-27T23:47:38.458Z,99.90
2023-03-27T23:50:05.290Z,99.90
2023-03-27T23:52:31.840Z,99.90
2023-03-27T23:54:58.450Z,99.90
2023-03-27T23:57:25.516Z,99.90
2023-03-27T23:59:52.139Z,99.90
